Flight Track Log - Related Links

Times and Time Zones

All times are in EDT time to prevent confusion due to time zone crossing. See the SWA419 flight status page for this flight to view local times or setup timezone preferences in your user account.

Time Position Orientation Groundspeed Altitude Reporting Facility
EDT Latitude Longitude Course Direction KTS MPH feet Rate Location/Type
Tue 02:23:21 PM 39.1500 -76.6500 252° West 166 191 1,800  Level Potomac TRACON
Tue 02:24:15 PM 39.1333 -76.7167 252° West 244 281 4,100 2,526 Climbing Potomac TRACON
Tue 02:25:15 PM 39.1833 -76.7833 314° West 279 321 6,600 2,789 Climbing Potomac TRACON
Tue 02:26:09 PM 39.2000 -76.8833 282° West 297 342 9,400 3,358 Climbing Potomac TRACON
Tue 02:27:04 PM 39.2167 -76.9833 282° West 306 352 12,700 3,263 Climbing Potomac TRACON
Tue 02:28:03 PM 39.2167 -77.1000 270° West 352 405 15,600 3,000 Climbing Potomac TRACON
Tue 02:29:04 PM 39.1500 -77.2000 229° Southwest 371 427 18,700 2,198 Climbing Potomac TRACON
Tue 02:31:25 PM 38.9828 -77.4289 227° Southwest 376 433 23,000 1,307 Climbing Washington Center
Tue 02:32:26 PM 38.9661 -77.5511 260° West 375 432 23,100 1,279 Climbing Washington Center
Tue 02:33:27 PM 38.9386 -77.7025 257° West 397 457 25,600 1,934 Climbing Washington Center
Tue 02:34:27 PM 38.9175 -77.8328 258° West 418 481 27,000 712 Climbing Washington Center
Tue 02:35:25 PM 38.8917 -77.9814 257° West 428 493 27,000 1,008 Level Washington Center
Tue 02:36:26 PM 38.8678 -78.1300 258° West 428 493 29,000 1,967 Climbing Washington Center
Tue 02:37:27 PM 38.8542 -78.2839 264° West 433 498 31,000 2,281 Climbing Washington Center
Tue 02:38:27 PM 38.8506 -78.4386 268° West 433 498 33,600 2,237 Climbing Washington Center
Tue 02:39:25 PM 38.8406 -78.5872 265° West 423 487 35,400 1,627 Climbing Washington Center
Tue 02:40:25 PM 38.8203 -78.7331 260° West 423 487 36,800 1,488 Climbing Washington Center
Tue 02:41:26 PM 38.7994 -78.8867 260° West 429 494 38,400 1,525 Climbing Washington Center
Tue 02:42:27 PM 38.7786 -79.0350 260° West 429 494 39,900 793 Climbing Washington Center
Tue 02:43:27 PM 38.7575 -79.1831 260° West 429 494 40,000 51 Climbing Washington Center
Tue 02:44:25 PM 38.7358 -79.3469 260° West 429 494 40,000  Level Washington Center
Tue 02:45:25 PM 38.7144 -79.4950 260° West 429 494 40,000  Level Washington Center
Tue 02:46:26 PM 38.6908 -79.6453 259° West 429 494 40,000  Level Washington Center
Tue 02:47:27 PM 38.6717 -79.7772 260° West 429 494 40,000  Level Washington Center
Tue 02:48:27 PM 38.6478 -79.9247 258° West 429 494 40,000  Level Washington Center
Tue 02:50:59 PM 38.5886 -80.2931 258° West 425 489 40,000  Level Indianapolis Center
Tue 02:52:00 PM 38.5622 -80.4656 259° West 426 490 40,000  Level Indianapolis Center
Tue 02:53:02 PM 38.5417 -80.5956 259° West 426 490 40,000  Level Indianapolis Center
Tue 02:54:04 PM 38.5178 -80.7447 258° West 427 491 40,000  Level Indianapolis Center
Tue 02:55:06 PM 38.4892 -80.9250 259° West 430 495 40,000  Level Indianapolis Center
Tue 02:56:08 PM 38.4647 -81.0750 258° West 431 496 40,000  Level Indianapolis Center
Tue 02:57:09 PM 38.4403 -81.2250 258° West 429 494 40,000  Level Indianapolis Center
Tue 02:58:11 PM 38.4150 -81.3769 258° West 432 497 40,000  Level Indianapolis Center
Tue 02:59:13 PM 38.3906 -81.5289 258° West 433 498 40,000  Level Indianapolis Center
Tue 03:00:15 PM 38.3658 -81.6789 258° West 429 494 40,000  Level Indianapolis Center
Tue 03:01:17 PM 38.3344 -81.8258 255° West 426 490 40,000  Level Indianapolis Center
Tue 03:02:19 PM 38.2939 -81.9681 250° West 424 488 40,000  Level Indianapolis Center
Tue 03:03:21 PM 38.2542 -82.1108 251° West 426 490 40,000  Level Indianapolis Center
Tue 03:04:23 PM 38.2067 -82.2811 251° West 425 489 40,000  Level Indianapolis Center
Tue 03:05:25 PM 38.1661 -82.4217 250° West 424 488 40,000  Level Indianapolis Center
Tue 03:06:27 PM 38.1242 -82.5692 250° West 423 487 40,000  Level Indianapolis Center
Tue 03:07:29 PM 38.0839 -82.7067 250° West 417 480 40,000  Level Indianapolis Center
Tue 03:08:31 PM 38.0442 -82.8458 250° West 419 482 40,000  Level Indianapolis Center
Tue 03:09:33 PM 38.0039 -82.9831 250° West 417 480 40,000  Level Indianapolis Center
Tue 03:10:35 PM 37.9569 -83.1439 250° West 418 481 40,000  Level Indianapolis Center
Tue 03:11:37 PM 37.9158 -83.2833 250° West 422 486 40,000  Level Indianapolis Center
Tue 03:12:39 PM 37.8753 -83.4200 249° West 419 482 40,000  Level Indianapolis Center
Tue 03:13:41 PM 37.8339 -83.5589 249° West 420 483 40,000  Level Indianapolis Center
Tue 03:14:43 PM 37.7925 -83.7000 249° West 426 490 40,000  Level Indianapolis Center
Tue 03:15:00 PM 37.7807 -83.7311 249° West  Level FlightAware Approximate
Tue 03:15:46 PM 37.7431 -83.8608 249° West 424 488 40,000  Level Indianapolis Center
Tue 03:16:48 PM 37.7019 -83.9992 249° West 422 486 40,000  Level Indianapolis Center
Tue 03:17:50 PM 37.6603 -84.1317 248° West 411 473 40,000  Level Indianapolis Center
Tue 03:18:52 PM 37.6203 -84.2658 249° West 410 472 40,000  Level Indianapolis Center
Tue 03:19:54 PM 37.5797 -84.3981 249° West 406 467 40,000  Level Indianapolis Center
Tue 03:20:56 PM 37.5319 -84.5517 249° West 405 466 40,000  Level Indianapolis Center
Tue 03:21:58 PM 37.4914 -84.6836 249° West 405 466 40,000  Level Indianapolis Center
Tue 03:23:00 PM 37.4506 -84.8133 248° West 401 461 40,000  Level Indianapolis Center
Tue 03:24:02 PM 37.4108 -84.9442 249° West 401 461 40,000  Level Indianapolis Center
Tue 03:25:04 PM 37.3686 -85.0728 248° West 399 459 40,000  Level Indianapolis Center
Tue 03:26:06 PM 37.3294 -85.2033 249° West 399 459 40,000  Level Indianapolis Center
Tue 03:27:08 PM 37.2811 -85.3547 248° West 400 460 40,000  Level Indianapolis Center
Tue 03:28:10 PM 37.2403 -85.4853 249° West 400 460 40,000  Level Indianapolis Center
Tue 03:29:12 PM 37.1972 -85.6161 248° West 406 467 40,000  Level Indianapolis Center
Tue 03:30:14 PM 37.1558 -85.7481 249° West 404 465 40,000  Level Indianapolis Center
Tue 03:30:33 PM 37.1378 -85.8008 247° West 398 458 40,000  Level Memphis Center
Tue 03:31:33 PM 37.0969 -85.9358 249° West 403 464 40,000  Level Memphis Center
Tue 03:32:33 PM 37.0533 -86.0656 247° West 408 470 40,000  Level Memphis Center
Tue 03:33:33 PM 37.0119 -86.1950 248° West 408 470 40,000  Level Memphis Center
Tue 03:34:33 PM 36.9664 -86.3272 247° West 408 470 40,000  Level Memphis Center
Tue 03:35:33 PM 36.9228 -86.4592 248° West 408 470 40,000  Level Memphis Center
Tue 03:36:33 PM 36.8786 -86.5858 246° West 400 460 40,000  Level Memphis Center
Tue 03:37:33 PM 36.8325 -86.7150 246° West 405 466 40,000  Level Memphis Center
Tue 03:38:33 PM 36.7881 -86.8389 246° West 400 460 40,000  Level Memphis Center
Tue 03:39:33 PM 36.7417 -86.9678 246° West 405 466 40,000  Level Memphis Center
Tue 03:40:33 PM 36.6972 -87.0939 246° West 405 466 40,000  Level Memphis Center
Tue 03:41:33 PM 36.6503 -87.2197 245° Southwest 405 466 40,000  Level Memphis Center
Tue 03:42:33 PM 36.6033 -87.3406 244° Southwest 398 458 40,000  Level Memphis Center
Tue 03:43:33 PM 36.5564 -87.4689 246° West 398 458 40,000  Level Memphis Center
Tue 03:44:33 PM 36.5114 -87.5944 246° West 407 468 40,000  Level Memphis Center
Tue 03:45:33 PM 36.4681 -87.7069 244° Southwest 402 463 40,000  Level Memphis Center
Tue 03:46:33 PM 36.4206 -87.8347 245° Southwest 402 463 40,000  Level Memphis Center
Tue 03:47:33 PM 36.3750 -87.9600 246° West 402 463 40,000  Level Memphis Center
Tue 03:48:33 PM 36.3275 -88.0850 245° Southwest 402 463 40,000  Level Memphis Center
Tue 03:49:33 PM 36.2775 -88.2150 245° Southwest 395 455 40,000  Level Memphis Center
Tue 03:50:33 PM 36.2278 -88.3425 244° Southwest 395 455 40,000  Level Memphis Center
Tue 03:51:33 PM 36.1794 -88.4669 244° Southwest 400 460 40,000  Level Memphis Center
Tue 03:52:33 PM 36.1333 -88.5889 245° Southwest 405 466 40,000  Level Memphis Center
Tue 03:53:33 PM 36.0831 -88.7108 243° Southwest 405 466 40,000  Level Memphis Center
Tue 03:54:33 PM 36.0367 -88.8350 245° Southwest 405 466 40,000  Level Memphis Center
Tue 03:55:33 PM 35.9881 -88.9589 244° Southwest 405 466 40,000  Level Memphis Center
Tue 03:56:33 PM 35.9392 -89.0775 243° Southwest 405 466 40,000  Level Memphis Center
Tue 03:57:33 PM 35.8947 -89.2014 246° West 400 460 40,000  Level Memphis Center
Tue 03:58:33 PM 35.8478 -89.3197 244° Southwest 400 460 40,000  Level Memphis Center
Tue 03:59:33 PM 35.8006 -89.4408 244° Southwest 400 460 40,000  Level Memphis Center
Tue 04:00:33 PM 35.7536 -89.5564 243° Southwest 395 455 40,000  Level Memphis Center
Tue 04:01:33 PM 35.7125 -89.6617 244° Southwest 387 445 40,000  Level Memphis Center
Tue 04:02:33 PM 35.6694 -89.7922 248° West 382 440 40,000 -600 Level Memphis Center
Tue 04:03:33 PM 35.6219 -89.9050 243° Southwest 377 434 38,800 -1,000 Descending Memphis Center
Tue 04:04:33 PM 35.5764 -90.0175 244° Southwest 377 434 38,000 -400 Descending Memphis Center
Tue 04:05:33 PM 35.5328 -90.1275 244° Southwest 377 434 38,000  Level Memphis Center
Tue 04:06:33 PM 35.4869 -90.2397 243° Southwest 366 421 38,000 -900 Level Memphis Center
Tue 04:07:33 PM 35.4433 -90.3494 244° Southwest 360 414 36,200 -1,500 Descending Memphis Center
Tue 04:08:33 PM 35.3975 -90.4639 244° Southwest 365 420 35,000 -600 Descending Memphis Center
Tue 04:09:33 PM 35.3492 -90.5786 243° Southwest 373 429 35,000 -500 Level Memphis Center
Tue 04:10:33 PM 35.3031 -90.6956 244° Southwest 373 429 34,000 -500 Descending Memphis Center
Tue 04:11:33 PM 35.2528 -90.8097 242° Southwest 383 441 34,000  Level Memphis Center
Tue 04:12:33 PM 35.2083 -90.9264 245° Southwest 388 447 34,000  Level Memphis Center
Tue 04:13:33 PM 35.1578 -91.0453 243° Southwest 388 447 34,000  Level Memphis Center
Tue 04:14:33 PM 35.1156 -91.1492 244° Southwest 388 447 34,000  Level Memphis Center
Tue 04:15:33 PM 35.0667 -91.2653 243° Southwest 388 447 34,000  Level Memphis Center
Tue 04:16:33 PM 35.0200 -91.3839 244° Southwest 388 447 34,000  Level Memphis Center
Tue 04:17:33 PM 34.9689 -91.5000 242° Southwest 388 447 34,000  Level Memphis Center
Tue 04:18:33 PM 34.9197 -91.6158 243° Southwest 388 447 34,000  Level Memphis Center
Tue 04:19:33 PM 34.8706 -91.7342 243° Southwest 388 447 34,000  Level Memphis Center
Tue 04:20:33 PM 34.8233 -91.8472 243° Southwest 388 447 34,000  Level Memphis Center
Tue 04:21:33 PM 34.7675 -91.9750 242° Southwest 388 447 34,000  Level Memphis Center
Tue 04:22:33 PM 34.7219 -92.0956 245° Southwest 388 447 34,000  Level Memphis Center
Tue 04:23:33 PM 34.6703 -92.2056 240° Southwest 383 441 34,000  Level Memphis Center
Tue 04:24:33 PM 34.6083 -92.3128 235° Southwest 388 447 34,000  Level Memphis Center
Tue 04:25:33 PM 34.5419 -92.4119 231° Southwest 388 447 34,000  Level Memphis Center
Tue 04:26:33 PM 34.4797 -92.5164 234° Southwest 388 447 34,000  Level Memphis Center
Tue 04:27:33 PM 34.4172 -92.6231 235° Southwest 388 447 34,000  Level Memphis Center
Tue 04:28:33 PM 34.3550 -92.7244 233° Southwest 388 447 34,000  Level Memphis Center
Tue 04:30:54 PM 34.2053 -92.9664 233° Southwest 381 438 34,000  Level Fort Worth Center
Tue 04:31:54 PM 34.1400 -93.0675 232° Southwest 386 444 34,000  Level Fort Worth Center
Tue 04:32:54 PM 34.0789 -93.1733 235° Southwest 382 440 34,000  Level Fort Worth Center
Tue 04:33:54 PM 34.0156 -93.2767 234° Southwest 382 440 34,000  Level Fort Worth Center
Tue 04:34:54 PM 33.9500 -93.3800 233° Southwest 382 440 34,000  Level Fort Worth Center
Tue 04:35:54 PM 33.8844 -93.4831 233° Southwest 388 447 34,000  Level Fort Worth Center
Tue 04:36:54 PM 33.8208 -93.5858 233° Southwest 388 447 34,000  Level Fort Worth Center
Tue 04:37:54 PM 33.7550 -93.6911 233° Southwest 394 453 34,000  Level Fort Worth Center
Tue 04:38:54 PM 33.6914 -93.7961 234° Southwest 394 453 34,000 400 Level Fort Worth Center
Tue 04:39:54 PM 33.6275 -93.9011 234° Southwest 394 453 34,800 1,300 Climbing Fort Worth Center
Tue 04:40:54 PM 33.5594 -94.0061 232° Southwest 394 453 36,600 1,600 Climbing Fort Worth Center
Tue 04:41:54 PM 33.4956 -94.1156 235° Southwest 404 465 38,000 1,500 Climbing Fort Worth Center
Tue 04:42:54 PM 33.4339 -94.2250 236° Southwest 404 465 39,600 1,000 Climbing Fort Worth Center
Tue 04:43:54 PM 33.3697 -94.3342 235° Southwest 409 471 40,000 200 Climbing Fort Worth Center
Tue 04:44:54 PM 33.3078 -94.4433 236° Southwest 409 471 40,000  Level Fort Worth Center
Tue 04:45:54 PM 33.2456 -94.5544 236° Southwest 409 471 40,000  Level Fort Worth Center
Tue 04:46:54 PM 33.1853 -94.6633 237° Southwest 404 465 40,000  Level Fort Worth Center
Tue 04:47:54 PM 33.1208 -94.7719 235° Southwest 404 465 40,000  Level Fort Worth Center
Tue 04:48:54 PM 33.0583 -94.8828 236° Southwest 404 465 40,000  Level Fort Worth Center
Tue 04:49:54 PM 32.9958 -94.9936 236° Southwest 404 465 40,000  Level Fort Worth Center
Tue 04:50:54 PM 32.9333 -95.1042 236° Southwest 404 465 40,000  Level Fort Worth Center
Tue 04:51:54 PM 32.8686 -95.2147 235° Southwest 404 465 40,000  Level Fort Worth Center
Tue 04:52:54 PM 32.8056 -95.3250 236° Southwest 404 465 40,000  Level Fort Worth Center
Tue 04:53:54 PM 32.7406 -95.4375 236° Southwest 404 465 40,000  Level Fort Worth Center
Tue 04:54:54 PM 32.6736 -95.5500 235° Southwest 404 465 40,000  Level Fort Worth Center
Tue 04:55:54 PM 32.6125 -95.6622 237° Southwest 404 465 40,000  Level Fort Worth Center
Tue 04:56:54 PM 32.5533 -95.7619 235° Southwest 409 471 40,000  Level Fort Worth Center
Tue 04:57:54 PM 32.4839 -95.8889 237° Southwest 409 471 40,000  Level Fort Worth Center
Tue 04:58:54 PM 32.4244 -95.9908 235° Southwest 409 471 40,000  Level Fort Worth Center
Tue 04:59:54 PM 32.3508 -96.1125 234° Southwest 417 480 40,000  Level Fort Worth Center
Tue 05:00:54 PM 32.2911 -96.2142 235° Southwest 422 486 40,000  Level Fort Worth Center
Tue 05:01:54 PM 32.2214 -96.3403 237° Southwest 422 486 40,000  Level Fort Worth Center
Tue 05:02:54 PM 32.1533 -96.4467 233° Southwest 415 478 40,000  Level Fort Worth Center
Tue 05:03:54 PM 32.0642 -96.5406 222° Southwest 415 478 40,000  Level Fort Worth Center
Tue 05:04:54 PM 31.9686 -96.6150 213° Southwest 422 486 40,000  Level Fort Worth Center
Tue 05:05:54 PM 31.8792 -96.6867 214° Southwest 428 493 40,000  Level Fort Worth Center
Tue 05:06:54 PM 31.7817 -96.7633 214° Southwest 428 493 40,000  Level Fort Worth Center
Tue 05:08:52 PM 31.5850 -96.9167 214° Southwest 424 488 40,000  Level Houston Center
Tue 05:09:54 PM 31.4864 -96.9925 213° Southwest 421 484 40,000  Level Houston Center
Tue 05:10:56 PM 31.3878 -97.0694 214° Southwest 422 486 40,000  Level Houston Center
Tue 05:11:58 PM 31.2906 -97.1464 214° Southwest 418 481 40,000  Level Houston Center
Tue 05:13:00 PM 31.1706 -97.2258 210° Southwest 421 484 40,000  Level Houston Center
Tue 05:14:02 PM 31.0514 -97.2703 198° South 428 493 40,000 -581 Level Houston Center
Tue 05:15:04 PM 30.9367 -97.3139 198° South 433 498 38,800 -1,694 Descending Houston Center
Tue 05:16:06 PM 30.8328 -97.3553 199° South 429 494 36,500 -2,903 Descending Houston Center
Tue 05:17:08 PM 30.7014 -97.4047 198° South 424 488 32,800 -3,145 Descending Houston Center
Tue 05:18:10 PM 30.5856 -97.4500 199° South 433 498 30,000 -2,565 Descending Houston Center
Tue 05:19:12 PM 30.4728 -97.4939 199° South 425 489 27,500 -2,400 Descending Houston Center
Tue 05:20:15 PM 30.3625 -97.5397 200° South 418 481 25,000 -2,352 Descending Houston Center
Tue 05:21:17 PM 30.2664 -97.6081 212° Southwest 401 461 22,600 -2,323 Descending Houston Center
Tue 05:22:19 PM 30.1719 -97.6733 211° Southwest 393 452 20,200 -2,467 Descending Houston Center
Tue 05:22:47 PM 30.1194 -97.7103 211° Southwest 385 443 18,900 -2,806 Descending Houston Center
Tue 05:23:21 PM 30.0636 -97.7478 210° Southwest 383 441 17,300 -2,548 Descending Houston Center
Tue 05:24:00 PM 30.0089 -97.7850 211° Southwest 376 433 15,800 -2,323 Descending Houston Center
Tue 05:24:23 PM 29.9750 -97.8081 211° Southwest 371 427 14,900 -2,361 Descending Houston Center
Tue 05:25:01 PM 29.9206 -97.8469 212° Southwest 368 423 13,400 -1,935 Descending Houston Center
Tue 05:25:25 PM 29.8878 -97.8822 223° Southwest 360 414 12,900 -1,377 Descending Houston Center
Tue 05:26:02 PM 29.8625 -97.9433 245° Southwest 337 388 12,000 -1,161 Descending Houston Center
Tue 05:26:27 PM 29.8486 -97.9781 245° Southwest 327 376 11,700 -1,091 Descending Houston Center
Tue 05:26:57 PM 29.8317 -98.0172 244° Southwest 304 350 11,000 -1,355 Descending Houston Center
Tue 05:27:29 PM 29.8128 -98.0642 245° Southwest 300 345 10,300 -1,475 Descending Houston Center
Tue 05:27:58 PM 29.7922 -98.1111 243° Southwest 293 337 9,500 -1,548 Descending Houston Center
Tue 05:28:31 PM 29.7739 -98.1547 244° Southwest 294 338 8,700 -1,364 Descending Houston Center
Tue 05:29:04 PM 29.7564 -98.1975 245° Southwest 285 328 8,000 -1,355 Descending Houston Center
Tue 05:29:33 PM 29.7397 -98.2347 243° Southwest 281 323 7,300 -1,377 Descending Houston Center
Tue 05:30:05 PM 29.7217 -98.2764 243° Southwest 273 314 6,600 -1,429 Descending Houston Center
Tue 05:30:36 PM 29.7056 -98.3183 246° West 271 312 5,800 -1,377 Descending Houston Center
Tue 05:31:06 PM 29.6975 -98.3564 256° West 263 303 5,200 -871 Descending Houston Center
Tue 05:31:38 PM 29.6883 -98.3983 256° West 260 299 4,900 -655 Descending Houston Center
Tue 05:32:01 PM 29.6831 -98.4253 257° West 237 273 4,600 -871 Descending Houston Center
Tue 05:32:40 PM 29.6733 -98.4758 258° West 238 274 4,000 -600 Descending Houston Center
Tue 05:33:01 PM 29.6689 -98.5017 259° West 218 251 4,000 -484 Level Houston Center
Tue 05:33:42 PM 29.6681 -98.5392 269° West 206 237 3,500 -984 Descending Houston Center
Tue 05:34:02 PM 29.6664 -98.5644 266° West 198 228 3,000 -484 Descending Houston Center
Tue 05:34:44 PM 29.6328 -98.5731 193° South 192 221 3,000 -197 Level Houston Center
Tue 05:35:03 PM 29.6186 -98.5725 178° South 178 205 2,800 -677 Descending Houston Center
Tue 05:35:46 PM 29.5922 -98.5489 142° Southeast 172 198 2,300 -806 Descending Houston Center
Tue 05:36:10 PM 29.5819 -98.5361 133° Southeast 157 181 1,900 -774 Descending Houston Center
Tue 05:36:48 PM 29.5636 -98.5111 130° Southeast 149 171 1,500 -667 Descending Houston Center
Tue 05:37:04 PM 29.5583 -98.5078 151° Southeast 130 150 1,300 774 Descending Houston Center
Tue 05:37:50 PM 29.5411 -98.4814 127° Southeast 131 151 2,300 1,304 Climbing Houston Center
Tue 05:39:00 PM 29.5340 -98.4691 201° Southwest  Level Estimated
Tue 05:46:00 PM 29.5333 -98.4667 16° North  Level FlightAware Approximate

Login

Don't have an account? Register now (free) for customized features, flight alerts, and more!